Time;durP1;ratioP1;P1;durP2;ratioP2;P2;SDS_P1;SDS_P2;PMS_P1;PMS_P2;Temp;Humidity;BMP_temperature;BMP_pressure;BME280_temperature;BME280_humidity;BME280_pressure;Samples;Min_cycle;Max_cycle;Signal;HPM_P1;HPM_P2
2023/01/23 00:03:35;;;;;;;13.60;7.50;;;23.10;51.00;;;;;;221907;1262;25606;-50
2023/01/23 00:08:41;;;;;;;10.40;7.20;;;23.00;51.60;;;;;;221826;1253;23886;-50
2023/01/23 00:13:45;;;;;;;8.80;7.20;;;22.90;52.00;;;;;;221931;1256;22768;-48
2023/01/23 00:18:51;;;;;;;7.40;6.70;;;22.80;52.20;;;;;;221948;1260;22541;-51
2023/01/23 00:23:57;;;;;;;8.90;7.20;;;22.70;52.60;;;;;;221886;1271;22653;-51
2023/01/23 00:29:03;;;;;;;8.00;7.20;;;22.60;52.30;;;;;;221888;1262;22626;-48
2023/01/23 00:34:11;;;;;;;8.00;7.20;;;22.60;52.30;;;;;;222119;1262;23855;-47
2023/01/23 00:39:19;;;;;;;8.30;7.50;;;22.50;52.40;;;;;;221901;1264;25497;-50
2023/01/23 00:44:23;;;;;;;11.80;7.70;;;22.40;52.50;;;;;;221792;1262;23457;-49
2023/01/23 00:49:28;;;;;;;8.10;7.30;;;22.40;52.50;;;;;;221935;1253;24203;-48
2023/01/23 00:54:34;;;;;;;9.70;7.70;;;22.40;52.50;;;;;;221890;1262;25375;-50
2023/01/23 00:59:38;;;;;;;7.50;6.60;;;22.30;52.50;;;;;;221915;1264;22778;-47
2023/01/23 01:04:42;;;;;;;8.50;7.70;;;22.20;52.30;;;;;;221919;1257;26508;-48
2023/01/23 01:09:46;;;;;;;8.60;7.80;;;22.20;52.20;;;;;;221985;1250;25623;-48
2023/01/23 01:14:52;;;;;;;8.50;7.60;;;22.20;52.50;;;;;;222086;1263;23118;-48
2023/01/23 01:19:56;;;;;;;9.50;7.60;;;22.10;52.40;;;;;;221925;1256;25464;-47
2023/01/23 01:25:00;;;;;;;7.90;7.10;;;22.00;52.50;;;;;;221876;1267;22764;-49
2023/01/23 01:30:05;;;;;;;8.20;7.40;;;22.00;52.40;;;;;;221991;1270;22531;-51
2023/01/23 01:35:10;;;;;;;8.40;7.60;;;22.00;52.70;;;;;;221927;1260;24297;-52
2023/01/23 01:40:17;;;;;;;7.90;7.10;;;21.90;52.60;;;;;;222031;1263;24369;-51
2023/01/23 01:45:59;;;;;;;7.70;7.00;;;21.80;52.50;;;;;;222045;1256;22980;-51
2023/01/23 01:51:13;;;;;;;7.70;7.00;;;22.00;52.60;;;;;;221871;1259;24281;-52
2023/01/23 01:56:19;;;;;;;8.50;7.60;;;22.30;51.60;;;;;;221894;1267;25587;-50
2023/01/23 02:01:23;;;;;;;7.20;6.60;;;22.60;51.00;;;;;;221923;1262;26515;-51
2023/01/23 02:06:27;;;;;;;8.10;7.30;;;22.80;50.60;;;;;;222054;1257;22875;-46
2023/01/23 02:11:32;;;;;;;7.10;6.30;;;23.00;50.10;;;;;;221908;1263;163740;-49
2023/01/23 02:16:39;;;;;;;7.80;7.10;;;23.10;49.80;;;;;;222146;1269;22647;-47
2023/01/23 02:21:48;;;;;;;10.60;7.30;;;23.10;50.00;;;;;;222025;1270;24276;-49
2023/01/23 02:26:54;;;;;;;7.90;6.70;;;23.20;49.60;;;;;;221898;1250;22543;-50
2023/01/23 02:31:59;;;;;;;7.10;6.50;;;23.20;49.40;;;;;;222113;1257;22515;-52
2023/01/23 02:37:06;;;;;;;8.70;7.30;;;23.30;49.30;;;;;;222190;1270;24935;-51
2023/01/23 02:42:11;;;;;;;7.30;6.60;;;23.30;49.30;;;;;;221896;1266;24331;-51
2023/01/23 02:47:20;;;;;;;7.00;6.40;;;23.40;49.10;;;;;;221937;1256;23878;-52
2023/01/23 02:52:24;;;;;;;7.70;7.00;;;23.40;48.90;;;;;;221943;1268;22543;-50
2023/01/23 02:57:28;;;;;;;8.30;7.20;;;23.50;48.80;;;;;;221789;1266;25239;-51
2023/01/23 03:02:32;;;;;;;9.00;6.60;;;23.60;48.90;;;;;;221839;1267;24204;-48
2023/01/23 03:07:37;;;;;;;7.80;6.50;;;23.70;48.70;;;;;;221957;1248;24209;-52
2023/01/23 03:12:42;;;;;;;7.20;6.50;;;23.70;48.50;;;;;;222207;1263;22564;-50
2023/01/23 03:17:47;;;;;;;8.90;7.20;;;23.70;48.90;;;;;;222009;1257;22533;-51
2023/01/23 03:22:52;;;;;;;7.80;7.10;;;23.80;48.90;;;;;;221796;1259;24373;-49
2023/01/23 03:27:56;;;;;;;8.00;7.00;;;23.80;48.60;;;;;;221987;1258;25460;-51
2023/01/23 03:33:01;;;;;;;7.30;6.60;;;23.80;48.60;;;;;;221906;1264;25313;-48
2023/01/23 03:38:05;;;;;;;8.10;7.00;;;23.90;48.70;;;;;;222019;1259;22768;-48
2023/01/23 03:43:10;;;;;;;8.40;7.50;;;23.90;48.40;;;;;;222015;1256;22555;-51
2023/01/23 03:48:19;;;;;;;7.40;6.60;;;23.90;48.40;;;;;;222046;1260;25609;-49
2023/01/23 03:53:24;;;;;;;7.80;7.00;;;23.80;48.50;;;;;;221888;1267;22535;-50
2023/01/23 03:58:29;;;;;;;8.50;7.80;;;23.60;48.60;;;;;;222006;1271;22554;-50
2023/01/23 04:03:34;;;;;;;7.70;7.00;;;23.40;49.10;;;;;;221900;1257;24057;-52
2023/01/23 04:08:39;;;;;;;7.40;6.70;;;23.20;49.50;;;;;;221886;1263;23878;-49
2023/01/23 04:13:45;;;;;;;7.60;6.90;;;23.10;49.80;;;;;;221896;1270;25354;-50
2023/01/23 04:18:50;;;;;;;9.20;6.90;;;23.00;49.90;;;;;;222091;1264;25348;-51
2023/01/23 04:23:54;;;;;;;8.50;7.60;;;23.00;50.10;;;;;;221962;1266;22601;-50
2023/01/23 04:28:58;;;;;;;9.40;7.10;;;22.90;49.70;;;;;;221843;1264;23915;-49
2023/01/23 04:34:03;;;;;;;7.90;7.00;;;22.90;50.70;;;;;;222009;1266;25552;-50
2023/01/23 04:39:07;;;;;;;7.80;7.10;;;22.80;50.20;;;;;;221904;1266;25358;-51
2023/01/23 04:44:21;;;;;;;8.40;7.60;;;22.70;50.40;;;;;;221982;1266;22642;-51
2023/01/23 04:49:48;;;;;;;8.10;7.40;;;22.60;50.60;;;;;;221815;1271;22523;-51
2023/01/23 04:54:53;;;;;;;7.30;6.60;;;22.60;50.80;;;;;;221876;1263;22534;-51
2023/01/23 04:59:57;;;;;;;8.30;7.50;;;22.50;50.80;;;;;;222208;1250;24025;-51
2023/01/23 05:05:05;;;;;;;8.20;7.40;;;22.40;51.00;;;;;;221821;1266;23192;-50
2023/01/23 05:10:10;;;;;;;8.50;7.70;;;22.30;50.90;;;;;;221877;1264;22530;-49
2023/01/23 05:15:16;;;;;;;8.10;7.30;;;22.30;51.40;;;;;;221773;1258;24228;-49
2023/01/23 05:20:22;;;;;;;8.40;7.60;;;22.20;51.20;;;;;;221893;1263;22537;-51
2023/01/23 05:25:27;;;;;;;8.30;7.60;;;22.20;51.60;;;;;;221895;1270;24257;-49
2023/01/23 05:30:32;;;;;;;8.10;7.20;;;22.10;51.50;;;;;;221852;1267;22659;-53
2023/01/23 05:35:50;;;;;;;8.60;7.80;;;22.00;51.50;;;;;;222014;1256;24253;-50
2023/01/23 05:40:54;;;;;;;9.20;8.30;;;22.00;51.40;;;;;;222237;1263;24508;-52
2023/01/23 05:46:24;;;;;;;8.20;7.40;;;22.00;51.70;;;;;;221872;1269;22537;-49
2023/01/23 05:51:32;;;;;;;9.40;8.10;;;22.40;51.10;;;;;;221975;1270;22523;-52
2023/01/23 05:56:37;;;;;;;9.10;7.40;;;22.70;50.40;;;;;;221905;1253;22553;-51
2023/01/23 06:01:59;;;;;;;8.20;7.40;;;22.80;50.10;;;;;;221795;1267;23654;-51
2023/01/23 06:07:32;;;;;;;8.50;7.80;;;22.90;49.80;;;;;;221691;1271;22555;-50
2023/01/23 06:12:40;;;;;;;7.90;7.10;;;23.10;49.50;;;;;;222132;1259;24327;-50
2023/01/23 06:17:44;;;;;;;8.30;7.30;;;23.20;49.10;;;;;;221995;1257;24208;-50
2023/01/23 06:22:49;;;;;;;7.90;7.10;;;23.30;49.20;;;;;;222279;1267;22746;-48
2023/01/23 06:27:53;;;;;;;8.10;7.40;;;23.20;49.10;;;;;;221786;1257;24222;-52
2023/01/23 06:32:59;;;;;;;7.90;7.10;;;23.30;49.00;;;;;;221994;1259;22615;-49
2023/01/23 06:38:09;;;;;;;8.40;7.60;;;23.40;48.80;;;;;;222002;1267;23880;-49
2023/01/23 06:43:14;;;;;;;7.40;6.70;;;23.50;48.60;;;;;;221998;1266;22510;-48
2023/01/23 06:48:18;;;;;;;7.50;6.80;;;23.60;48.70;;;;;;221860;1256;24187;-49
2023/01/23 06:53:23;;;;;;;8.20;7.50;;;23.60;48.60;;;;;;221841;1263;22764;-45
2023/01/23 06:58:27;;;;;;;16.80;8.10;;;23.60;48.90;;;;;;222052;1271;22707;-47
2023/01/23 07:03:32;;;;;;;8.70;7.80;;;23.70;49.10;;;;;;221689;1263;23909;-47
2023/01/23 07:08:36;;;;;;;12.50;7.70;;;23.70;49.10;;;;;;222067;1263;22521;-46
2023/01/23 07:13:40;;;;;;;9.60;6.80;;;23.60;49.30;;;;;;222261;1266;22528;-48
2023/01/23 07:18:45;;;;;;;11.60;8.00;;;23.60;50.00;;;;;;222071;1259;22555;-51
2023/01/23 07:23:49;;;;;;;11.90;7.00;;;23.50;50.40;;;;;;221892;1257;22538;-48
2023/01/23 07:28:54;;;;;;;8.20;7.50;;;23.50;50.60;;;;;;221758;1256;24346;-45
2023/01/23 07:33:58;;;;;;;8.50;6.90;;;23.50;50.40;;;;;;221854;1269;24257;-46
2023/01/23 07:39:02;;;;;;;13.10;8.00;;;23.50;51.50;;;;;;221988;1263;22540;-48
2023/01/23 07:44:05;;;;;;;14.60;8.60;;;23.40;51.10;;;;;;222221;1269;22540;-46
2023/01/23 07:49:10;;;;;;;18.50;8.90;;;23.30;50.60;;;;;;221875;1247;22536;-49
2023/01/23 07:54:14;;;;;;;16.40;9.30;;;23.20;51.60;;;;;;221903;1270;22534;-46
2023/01/23 07:59:18;;;;;;;19.40;10.10;;;23.00;51.10;;;;;;221908;1271;22619;-47
2023/01/23 08:04:22;;;;;;;15.60;9.20;;;22.90;52.00;;;;;;221736;1263;22535;-47
2023/01/23 08:09:26;;;;;;;16.30;10.10;;;22.90;52.00;;;;;;221678;1259;23919;-46
2023/01/23 08:14:30;;;;;;;16.90;10.70;;;22.70;51.50;;;;;;221929;1251;25553;-48
2023/01/23 08:19:34;;;;;;;13.20;10.20;;;22.60;51.50;;;;;;222708;1263;26629;-48
2023/01/23 08:24:39;;;;;;;12.20;9.20;;;22.60;51.40;;;;;;221956;1271;22664;-48
2023/01/23 08:29:43;;;;;;;15.30;8.90;;;22.50;51.40;;;;;;221914;1260;23939;-48
2023/01/23 08:34:47;;;;;;;13.20;9.70;;;22.40;51.30;;;;;;221618;1263;22574;-45
2023/01/23 08:39:51;;;;;;;13.80;9.60;;;22.40;51.40;;;;;;221828;1247;22535;-48
2023/01/23 08:44:55;;;;;;;12.50;9.70;;;22.30;51.40;;;;;;221781;1262;22591;-47
2023/01/23 08:49:59;;;;;;;11.00;9.90;;;22.20;51.50;;;;;;221803;1259;22628;-47
2023/01/23 08:55:04;;;;;;;11.40;9.30;;;22.20;51.60;;;;;;221749;1269;22647;-46
2023/01/23 09:00:09;;;;;;;11.50;10.40;;;22.10;52.00;;;;;;221812;1260;22544;-50
2023/01/23 09:05:13;;;;;;;11.30;10.20;;;22.20;51.40;;;;;;221634;1259;24196;-46
2023/01/23 09:10:17;;;;;;;10.70;9.70;;;22.00;51.40;;;;;;221882;1268;23328;-46
2023/01/23 09:15:22;;;;;;;11.10;9.70;;;22.00;51.40;;;;;;221787;1260;25214;-47
2023/01/23 09:20:27;;;;;;;15.40;9.80;;;22.00;51.40;;;;;;221758;1263;22895;-46
2023/01/23 09:25:32;;;;;;;12.60;10.90;;;21.80;51.00;;;;;;221786;1269;25354;-46
2023/01/23 09:30:36;;;;;;;10.70;9.60;;;21.80;51.30;;;;;;221712;1264;22536;-44
2023/01/23 09:35:40;;;;;;;11.90;9.70;;;21.80;51.40;;;;;;221788;1266;22894;-45
2023/01/23 09:40:50;;;;;;;13.30;10.00;;;22.10;50.90;;;;;;221625;1263;22895;-48
2023/01/23 09:46:26;;;;;;;11.00;9.60;;;22.40;50.00;;;;;;221723;1256;22927;-49
2023/01/23 09:51:37;;;;;;;10.50;9.50;;;22.70;49.40;;;;;;221749;1253;22561;-47
2023/01/23 09:56:45;;;;;;;11.30;9.90;;;23.00;48.70;;;;;;221742;1263;22547;-46
2023/01/23 10:01:52;;;;;;;9.70;8.80;;;23.00;48.80;;;;;;221638;1263;24212;-49
2023/01/23 10:07:21;;;;;;;10.00;9.10;;;23.10;48.20;;;;;;221777;1267;25383;-46
2023/01/23 10:12:38;;;;;;;10.70;9.60;;;23.20;48.20;;;;;;221732;1266;23909;-48
2023/01/23 10:18:02;;;;;;;10.20;8.60;;;23.30;47.60;;;;;;221710;1257;22747;-49
2023/01/23 10:23:38;;;;;;;9.90;9.00;;;23.30;47.80;;;;;;221700;1264;24043;-49
2023/01/23 10:28:42;;;;;;;10.70;9.20;;;23.30;47.90;;;;;;221934;1249;23964;-47
2023/01/23 10:33:55;;;;;;;9.60;8.60;;;23.30;47.80;;;;;;221916;1264;23884;-48
2023/01/23 10:39:09;;;;;;;11.00;9.90;;;23.40;47.70;;;;;;221922;1271;22531;-49
2023/01/23 10:44:18;;;;;;;10.10;9.20;;;23.40;47.70;;;;;;221784;1269;22542;-46
2023/01/23 10:49:32;;;;;;;10.70;9.50;;;23.50;47.90;;;;;;221851;1263;24109;-47
2023/01/23 10:54:45;;;;;;;12.40;9.40;;;23.60;47.50;;;;;;221826;1269;25485;-49
2023/01/23 11:00:34;;;;;;;11.10;9.00;;;23.60;47.80;;;;;;221851;1271;24046;-48
2023/01/23 11:05:42;;;;;;;10.50;9.40;;;23.50;48.10;;;;;;221936;1260;25265;-46
2023/01/23 11:11:14;;;;;;;16.80;10.10;;;23.40;48.50;;;;;;221754;1267;22526;-49
2023/01/23 11:16:20;;;;;;;9.50;8.60;;;23.40;48.70;;;;;;221836;1263;24203;-47
2023/01/23 11:21:32;;;;;;;13.90;9.40;;;23.40;48.60;;;;;;221798;1253;23872;-46
2023/01/23 11:26:37;;;;;;;11.10;9.40;;;23.50;48.60;;;;;;221893;1260;22643;-45
2023/01/23 11:31:42;;;;;;;11.10;9.40;;;23.60;49.20;;;;;;221883;1263;24579;-47
2023/01/23 11:37:01;;;;;;;12.30;9.40;;;23.70;48.50;;;;;;221675;1267;22705;-47
2023/01/23 11:42:10;;;;;;;17.50;9.90;;;23.70;48.20;;;;;;221806;1253;25459;-46
2023/01/23 11:47:38;;;;;;;10.80;9.70;;;23.70;48.10;;;;;;221727;1264;22639;-50
2023/01/23 11:53:06;;;;;;;11.70;8.90;;;23.70;48.10;;;;;;222052;1263;23118;-49
2023/01/23 11:58:48;;;;;;;9.90;9.00;;;23.60;48.20;;;;;;221896;1271;22524;-46
2023/01/23 12:04:23;;;;;;;11.20;9.90;;;23.50;49.40;;;;;;220982;1263;22538;-47
2023/01/23 12:10:01;;;;;;;10.20;9.10;;;23.40;48.80;;;;;;221048;1272;23022;-47
2023/01/23 12:15:25;;;;;;;10.40;9.30;;;23.20;49.20;;;;;;220713;1262;22715;-45
2023/01/23 12:20:43;;;;;;;12.50;11.20;;;23.00;49.50;;;;;;220886;1270;22682;-48
2023/01/23 12:26:06;;;;;;;13.40;12.10;;;23.10;49.70;;;;;;220854;1264;23213;-47
2023/01/23 12:31:39;;;;;;;12.10;10.90;;;23.10;49.60;;;;;;221001;1275;22658;-51
2023/01/23 12:36:50;;;;;;;13.00;11.00;;;22.90;49.60;;;;;;221372;1267;25532;-47
2023/01/23 12:42:20;;;;;;;11.50;10.30;;;22.80;50.90;;;;;;221615;1269;23021;-50
2023/01/23 12:47:43;;;;;;;11.80;10.60;;;22.70;51.80;;;;;;221688;1267;22847;-47
2023/01/23 12:53:20;;;;;;;11.90;10.90;;;22.60;52.00;;;;;;221768;1263;22547;-48
2023/01/23 12:58:27;;;;;;;12.50;10.90;;;22.40;52.50;;;;;;221842;1271;24746;-47
2023/01/23 13:03:53;;;;;;;12.20;10.40;;;22.40;54.00;;;;;;221977;1270;22527;-47
2023/01/23 13:09:03;;;;;;;12.00;10.90;;;22.30;54.30;;;;;;221855;1259;22589;-47
2023/01/23 13:14:45;;;;;;;14.60;11.50;;;22.30;54.60;;;;;;221740;1254;25312;-45
2023/01/23 13:26:11;;;;;;;12.50;11.10;;;22.20;55.60;;;;;;222146;1256;22659;-51
2023/01/23 13:31:43;;;;;;;12.40;11.10;;;22.20;55.80;;;;;;221770;1257;26338;-48
2023/01/23 13:36:50;;;;;;;12.80;11.50;;;22.00;56.20;;;;;;221775;1266;22572;-48
2023/01/23 13:42:13;;;;;;;12.60;11.30;;;22.00;56.50;;;;;;221758;1271;22788;-49
2023/01/23 13:59:18;;;;;;;13.00;11.70;;;21.80;56.90;;;;;;219608;1285;22607;-46
2023/01/23 14:10:30;;;;;;;15.90;12.30;;;21.80;57.30;;;;;;217866;1282;218602;-48
2023/01/23 14:16:09;;;;;;;14.90;12.30;;;22.20;56.40;;;;;;217199;1294;22573;-48
2023/01/23 14:28:16;;;;;;;13.20;11.80;;;22.50;56.10;;;;;;218066;1289;23790;-47
2023/01/23 14:33:20;;;;;;;13.80;11.70;;;22.60;55.60;;;;;;218804;1282;22636;-50
2023/01/23 14:38:32;;;;;;;12.80;11.50;;;22.70;56.50;;;;;;220319;1259;23961;-48
2023/01/23 14:43:37;;;;;;;13.80;12.30;;;22.80;56.60;;;;;;220841;1276;22551;-50
2023/01/23 14:48:43;;;;;;;12.70;11.40;;;22.80;57.10;;;;;;221128;1266;24207;-47
2023/01/23 14:53:59;;;;;;;13.10;11.80;;;22.90;56.70;;;;;;221769;1256;24198;-48
2023/01/23 14:59:20;;;;;;;13.40;11.70;;;22.90;56.90;;;;;;222001;1263;24369;-48
2023/01/23 15:04:27;;;;;;;14.20;11.50;;;23.00;56.20;;;;;;221899;1263;25287;-47
2023/01/23 15:09:41;;;;;;;14.00;12.50;;;23.00;56.70;;;;;;221872;1267;23254;-47
2023/01/23 15:14:45;;;;;;;14.20;12.90;;;23.00;56.00;;;;;;221914;1260;22699;-48
2023/01/23 15:19:54;;;;;;;12.80;11.60;;;22.90;56.90;;;;;;221898;1263;25245;-50
2023/01/23 15:25:27;;;;;;;14.00;12.50;;;22.90;56.40;;;;;;221993;1270;22547;-48
2023/01/23 15:30:47;;;;;;;13.50;12.20;;;23.00;56.30;;;;;;221938;1250;22540;-47
2023/01/23 15:35:51;;;;;;;13.70;12.30;;;23.00;56.10;;;;;;221830;1267;22553;-48
2023/01/23 15:40:58;;;;;;;13.60;12.20;;;23.10;56.10;;;;;;221905;1256;23177;-50
2023/01/23 15:46:02;;;;;;;15.80;14.20;;;23.10;56.00;;;;;;221900;1257;22533;-51
2023/01/23 15:51:10;;;;;;;15.20;13.40;;;23.20;56.20;;;;;;221878;1264;24851;-48
2023/01/23 15:56:25;;;;;;;16.20;13.80;;;23.20;56.00;;;;;;221718;1251;22538;-53
2023/01/23 16:01:32;;;;;;;15.00;13.20;;;23.30;55.90;;;;;;221678;1260;22531;-51
2023/01/23 16:06:38;;;;;;;15.40;13.80;;;23.40;55.90;;;;;;221875;1267;22914;-52
2023/01/23 16:11:43;;;;;;;18.10;14.40;;;23.40;55.80;;;;;;221584;1256;22557;-53
2023/01/23 16:16:47;;;;;;;20.70;16.50;;;23.30;55.10;;;;;;221911;1250;25281;-51
2023/01/23 16:21:51;;;;;;;20.70;17.00;;;23.20;56.70;;;;;;221797;1257;24038;-48
2023/01/23 16:27:16;;;;;;;24.90;18.30;;;23.10;58.00;;;;;;221684;1260;22547;-54
2023/01/23 16:32:21;;;;;;;24.40;17.80;;;23.30;59.10;;;;;;221802;1251;22626;-54
2023/01/23 16:37:25;;;;;;;24.30;17.50;;;23.40;57.90;;;;;;221917;1256;22544;-51
2023/01/23 16:42:30;;;;;;;29.70;18.70;;;23.50;58.10;;;;;;221608;1256;24239;-53
2023/01/23 16:47:35;;;;;;;23.90;17.30;;;23.50;59.70;;;;;;221905;1264;26101;-53
2023/01/23 16:52:41;;;;;;;25.30;16.50;;;23.50;60.40;;;;;;222007;1264;25574;-55
2023/01/23 16:57:53;;;;;;;24.80;16.90;;;23.50;61.00;;;;;;227521;1261;22804;-58
2023/01/23 17:03:03;;;;;;;20.20;16.30;;;23.40;61.00;;;;;;221635;1257;25568;-54
2023/01/23 17:08:19;;;;;;;21.20;16.70;;;23.40;61.40;;;;;;221891;1271;25304;-46
2023/01/23 17:13:25;;;;;;;20.60;17.70;;;23.30;61.20;;;;;;221797;1264;22529;-46
2023/01/23 17:18:35;;;;;;;21.50;17.50;;;23.10;61.70;;;;;;221769;1256;25555;-48
2023/01/23 17:23:39;;;;;;;20.50;16.70;;;23.10;61.40;;;;;;221577;1266;22808;-53
2023/01/23 17:28:44;;;;;;;27.80;18.70;;;23.00;61.30;;;;;;221697;1264;24206;-53
2023/01/23 17:33:54;;;;;;;25.80;19.30;;;23.00;61.40;;;;;;221755;1262;25462;-47
2023/01/23 17:39:00;;;;;;;23.10;19.30;;;22.90;61.80;;;;;;221878;1254;24218;-53
2023/01/23 17:44:04;;;;;;;24.60;19.10;;;22.80;61.60;;;;;;221657;1262;24070;-46
2023/01/23 17:49:31;;;;;;;20.80;18.50;;;22.70;62.20;;;;;;221908;1263;24265;-53
2023/01/23 17:54:37;;;;;;;26.30;19.60;;;22.70;61.00;;;;;;221718;1251;25460;-50
2023/01/23 17:59:44;;;;;;;23.40;18.40;;;22.80;61.00;;;;;;221765;1262;22550;-46
2023/01/23 18:04:49;;;;;;;23.70;18.50;;;22.60;61.30;;;;;;221930;1262;25588;-52
2023/01/23 18:10:06;;;;;;;24.00;19.50;;;22.60;61.20;;;;;;221862;1255;23430;-51
2023/01/23 18:15:28;;;;;;;25.60;20.00;;;22.60;61.20;;;;;;222219;1256;24205;-50
2023/01/23 18:20:39;;;;;;;24.30;20.60;;;22.60;60.50;;;;;;221623;1253;24204;-50
2023/01/23 18:25:45;;;;;;;29.50;20.50;;;22.70;60.60;;;;;;221759;1263;24251;-53
2023/01/23 18:30:59;;;;;;;25.40;17.90;;;22.60;61.00;;;;;;224587;1247;22551;-48
2023/01/23 18:36:21;;;;;;;25.60;19.90;;;22.50;61.90;;;;;;221780;1264;23038;-44
2023/01/23 18:41:28;;;;;;;25.80;19.90;;;22.30;60.70;;;;;;221359;1260;22951;-47
2023/01/23 18:46:34;;;;;;;34.60;21.10;;;22.30;60.00;;;;;;221719;1251;23884;-45
2023/01/23 18:52:11;;;;;;;32.20;23.40;;;22.20;60.10;;;;;;221796;1256;24507;-49
2023/01/23 18:57:42;;;;;;;34.80;22.20;;;22.20;62.50;;;;;;220738;1264;25679;-47
2023/01/23 19:02:55;;;;;;;31.30;21.00;;;22.10;62.30;;;;;;220869;1268;23924;-47
2023/01/23 19:08:01;;;;;;;30.30;22.40;;;22.00;61.90;;;;;;220935;1270;22835;-47
2023/01/23 19:13:28;;;;;;;29.20;21.70;;;21.90;61.70;;;;;;220928;1275;24292;-46
2023/01/23 19:18:39;;;;;;;27.40;21.80;;;22.00;61.30;;;;;;220902;1275;23046;-46
2023/01/23 19:23:46;;;;;;;;;;;21.90;61.50;;;;;;220924;1269;25188;-46
2023/01/23 19:28:52;;;;;;;29.90;20.70;;;21.90;61.30;;;;;;220764;1277;22570;-46
2023/01/23 19:34:03;;;;;;;31.90;21.60;;;21.80;61.50;;;;;;222927;1270;22554;-47
2023/01/23 19:39:09;;;;;;;28.80;21.40;;;21.90;60.90;;;;;;222030;1257;24174;-47
2023/01/23 19:44:18;;;;;;;29.10;21.10;;;21.70;61.10;;;;;;221858;1263;22540;-45
2023/01/23 19:49:26;;;;;;;27.00;20.90;;;21.70;61.80;;;;;;221972;1263;25313;-45
2023/01/23 19:54:32;;;;;;;37.90;21.50;;;21.70;62.50;;;;;;222074;1256;22816;-47
2023/01/23 19:59:38;;;;;;;30.40;19.60;;;21.70;62.60;;;;;;221761;1250;22530;-46
2023/01/23 20:04:45;;;;;;;34.30;20.70;;;21.70;62.50;;;;;;221902;1263;23900;-47
2023/01/23 20:09:51;;;;;;;35.30;20.50;;;21.70;61.90;;;;;;221815;1260;25265;-46
2023/01/23 20:14:57;;;;;;;31.80;20.50;;;21.70;62.30;;;;;;221840;1263;22743;-45
2023/01/23 20:20:07;;;;;;;29.40;20.50;;;21.60;62.90;;;;;;221856;1256;22537;-49
2023/01/23 20:25:16;;;;;;;34.30;19.50;;;21.50;62.80;;;;;;221871;1256;25072;-48
2023/01/23 20:30:23;;;;;;;28.50;18.20;;;21.60;62.70;;;;;;221901;1261;24287;-46
2023/01/23 20:35:30;;;;;;;28.40;19.00;;;22.00;61.20;;;;;;221916;1259;22763;-46
2023/01/23 20:40:38;;;;;;;23.50;17.80;;;22.10;61.00;;;;;;221729;1263;25637;-45
2023/01/23 20:45:48;;;;;;;24.60;18.60;;;22.30;60.80;;;;;;221528;1254;24285;-46
2023/01/23 20:50:57;;;;;;;26.30;17.60;;;22.60;60.90;;;;;;222066;1256;24456;-45
2023/01/23 20:56:10;;;;;;;28.00;18.50;;;22.70;60.40;;;;;;221851;1256;23927;-45
2023/01/23 21:01:18;;;;;;;25.20;18.40;;;22.80;60.60;;;;;;221908;1259;23942;-49
2023/01/23 21:06:25;;;;;;;23.50;18.40;;;22.80;60.90;;;;;;221763;1266;22533;-46
2023/01/23 21:11:31;;;;;;;24.50;17.80;;;22.80;60.80;;;;;;221861;1263;24067;-46
2023/01/23 21:16:37;;;;;;;24.60;17.10;;;22.70;60.40;;;;;;221707;1263;22790;-44
2023/01/23 21:21:42;;;;;;;27.10;19.40;;;22.70;60.40;;;;;;221860;1260;24357;-47
2023/01/23 21:26:47;;;;;;;21.30;15.90;;;22.60;60.50;;;;;;221789;1262;22533;-47
2023/01/23 21:31:52;;;;;;;25.60;17.80;;;22.70;60.70;;;;;;221894;1259;24254;-50
2023/01/23 21:36:57;;;;;;;24.20;17.40;;;22.70;60.10;;;;;;221806;1263;22589;-47
2023/01/23 21:42:02;;;;;;;21.30;17.10;;;22.90;60.00;;;;;;221811;1257;24461;-52
2023/01/23 21:47:06;;;;;;;23.10;17.20;;;23.00;59.40;;;;;;221863;1251;24187;-49
2023/01/23 21:52:10;;;;;;;19.90;16.00;;;22.90;59.50;;;;;;221775;1255;24343;-50
2023/01/23 21:57:14;;;;;;;19.00;16.20;;;23.00;59.30;;;;;;221842;1263;25481;-50
2023/01/23 22:02:19;;;;;;;20.70;15.50;;;22.90;59.40;;;;;;221828;1257;22525;-52
2023/01/23 22:07:23;;;;;;;21.00;16.10;;;23.10;58.80;;;;;;221653;1256;26512;-50
2023/01/23 22:12:27;;;;;;;20.60;16.00;;;23.10;58.60;;;;;;221732;1248;22585;-50
2023/01/23 22:17:33;;;;;;;18.20;15.40;;;23.20;58.70;;;;;;222146;1264;22528;-46
2023/01/23 22:22:37;;;;;;;25.60;16.20;;;23.20;58.50;;;;;;222081;1269;22677;-52
2023/01/23 22:27:41;;;;;;;21.30;16.00;;;23.30;63.60;;;;;;221941;1270;22686;-51
2023/01/23 22:32:44;;;;;;;18.90;15.40;;;23.30;62.10;;;;;;221918;1262;22533;-48
2023/01/23 22:37:49;;;;;;;21.90;16.00;;;23.20;63.10;;;;;;221817;1260;23088;-50
2023/01/23 22:42:52;;;;;;;20.90;15.30;;;23.30;62.10;;;;;;221756;1269;24206;-50
2023/01/23 22:47:57;;;;;;;23.50;15.00;;;23.20;62.60;;;;;;222027;1256;25265;-48
2023/01/23 22:53:01;;;;;;;21.60;16.00;;;23.20;62.20;;;;;;222015;1255;26603;-51
2023/01/23 22:58:05;;;;;;;20.30;14.60;;;23.10;61.70;;;;;;221960;1260;22969;-48
2023/01/23 23:03:09;;;;;;;18.90;14.80;;;23.20;61.70;;;;;;221967;1259;22782;-50
2023/01/23 23:08:14;;;;;;;16.70;14.90;;;23.10;61.00;;;;;;221885;1259;22524;-49
2023/01/23 23:13:19;;;;;;;18.90;14.50;;;23.00;61.10;;;;;;221727;1255;24193;-51
2023/01/23 23:18:23;;;;;;;17.70;14.80;;;23.00;60.80;;;;;;221953;1263;22565;-50
2023/01/23 23:23:28;;;;;;;17.40;15.20;;;22.80;61.20;;;;;;222140;1254;24353;-48
2023/01/23 23:28:32;;;;;;;16.70;14.50;;;22.70;61.50;;;;;;221902;1262;25313;-49
2023/01/23 23:33:37;;;;;;;18.70;15.00;;;22.50;61.60;;;;;;221804;1250;22540;-50
2023/01/23 23:38:41;;;;;;;19.30;15.50;;;22.50;61.30;;;;;;221741;1256;24230;-53
2023/01/23 23:43:45;;;;;;;16.60;14.20;;;22.40;61.60;;;;;;221689;1259;24238;-48
2023/01/23 23:48:49;;;;;;;16.00;14.30;;;22.40;61.70;;;;;;221867;1266;22547;-52
2023/01/23 23:53:54;;;;;;;17.00;15.20;;;22.30;61.50;;;;;;221689;1260;24286;-51
2023/01/23 23:58:58;;;;;;;16.60;14.10;;;22.20;61.50;;;;;;221873;1263;22548;-51
